Time;durP1;ratioP1;P1;durP2;ratioP2;P2;SDS_P1;SDS_P2;PMS_P1;PMS_P2;Temp;Humidity;BMP_temperature;BMP_pressure;BME280_temperature;BME280_humidity;BME280_pressure;Samples;Min_cycle;Max_cycle;Signal;HPM_P1;HPM_P2
2022/08/13 05:57:22;;;;;;;;;;;;;;;25.49;59.21;99121.22;5105781;22;20466;-77
2022/08/13 06:05:15;;;;;;;;;;;;;;;26.41;55.18;99118.69;5100745;28;19918;-78
2022/08/13 06:07:41;;;;;;;;;;;;;;;26.25;55.84;99124.63;5098212;28;19912;-78
2022/08/13 06:10:07;;;;;;;;;;;;;;;26.63;55.82;99125.38;5097784;28;20018;-77
2022/08/13 06:12:32;;;;;;;;;;;;;;;26.95;53.95;99116.13;5097669;28;19973;-79
2022/08/13 06:14:58;;;;;;;;;;;;;;;26.98;51.72;99113.19;5116109;28;20327;-80
2022/08/13 06:17:23;;;;;;;;;;;;;;;26.68;52.53;99114.38;5096729;28;20322;-78
2022/08/13 06:19:48;;;;;;;;;;;;;;;27.03;51.61;99110.09;5114792;28;20464;-78
2022/08/13 06:22:14;;;;;;;;;;;;;;;26.83;52.41;99114.69;5096351;28;19960;-78
2022/08/13 06:24:40;;;;;;;;;;;;;;;26.81;51.91;99116.66;5096640;28;20373;-78
2022/08/13 06:27:05;;;;;;;;;;;;;;;27.84;48.50;99117.00;5097843;28;19922;-80
2022/08/13 06:29:35;;;;;;;;;;;;;;;28.25;47.87;99107.44;5097353;28;19911;-77
2022/08/13 06:32:03;;;;;;;;;;;;;;;27.27;49.33;99120.06;5097662;28;20062;-78
2022/08/13 06:34:31;;;;;;;;;;;;;;;27.60;51.69;99120.28;5081096;28;19915;-78
2022/08/13 06:36:58;;;;;;;;;;;;;;;27.46;49.67;99121.69;5115294;28;20432;-78
2022/08/13 06:39:23;;;;;;;;;;;;;;;27.22;50.79;99122.34;5097838;28;19953;-77
2022/08/13 06:41:48;;;;;;;;;;;;;;;27.45;50.27;99123.50;5097786;28;19919;-78
2022/08/13 06:44:14;;;;;;;;;;;;;;;27.96;48.56;99121.03;5098274;28;19911;-77
2022/08/13 06:46:39;;;;;;;;;;;;;;;28.15;49.60;99126.09;5098034;28;19918;-77
2022/08/13 06:49:04;;;;;;;;;;;;;;;27.63;49.09;99122.66;5098019;28;19935;-78
2022/08/13 06:51:30;;;;;;;;;;;;;;;28.13;48.85;99116.66;5098086;28;19916;-78
2022/08/13 06:53:56;;;;;;;;;;;;;;;27.67;50.98;99126.66;5097554;28;19973;-78
2022/08/13 06:56:23;;;;;;;;;;;;;;;28.48;49.86;99125.44;5097210;28;20254;-79
2022/08/13 06:58:49;;;;;;;;;;;;;;;28.14;49.86;99120.97;5097341;28;19912;-79
2022/08/13 07:01:19;;;;;;;;;;;;;;;28.05;49.49;99120.09;5096317;28;20041;-78
2022/08/13 07:03:45;;;;;;;;;;;;;;;28.82;48.88;99117.38;5080152;28;19935;-78
2022/08/13 07:06:14;;;;;;;;;;;;;;;29.01;47.71;99116.25;5115167;28;20418;-78
2022/08/13 07:08:40;;;;;;;;;;;;;;;29.08;46.31;99113.78;5095907;28;19955;-78
2022/08/13 07:11:23;;;;;;;;;;;;;;;28.72;47.12;99128.16;5096153;28;20280;-79
2022/08/13 07:13:53;;;;;;;;;;;;;;;29.65;44.97;99121.72;5111917;28;19922;-77
2022/08/13 07:16:19;;;;;;;;;;;;;;;30.00;44.55;99120.50;5095210;28;19916;-78
2022/08/13 07:18:49;;;;;;;;;;;;;;;31.11;41.41;99131.94;5095298;28;19965;-77
2022/08/13 07:21:16;;;;;;;;;;;;;;;30.41;41.61;99128.34;5095114;28;19912;-77
2022/08/13 07:23:42;;;;;;;;;;;;;;;30.11;42.15;99129.94;5094280;28;19911;-77
2022/08/13 07:26:08;;;;;;;;;;;;;;;30.67;41.34;99124.53;5094441;28;19956;-77
2022/08/13 07:28:33;;;;;;;;;;;;;;;30.20;41.38;99125.41;5094726;28;19931;-78
2022/08/13 07:31:00;;;;;;;;;;;;;;;29.29;42.47;99130.06;5114336;28;19919;-78
2022/08/13 07:33:28;;;;;;;;;;;;;;;29.58;42.56;99126.88;5094220;28;19925;-77
2022/08/13 07:35:55;;;;;;;;;;;;;;;30.80;39.13;99127.44;5095909;28;19912;-77
2022/08/13 07:38:20;;;;;;;;;;;;;;;31.23;39.77;99129.66;5116248;28;19918;-78
2022/08/13 07:40:50;;;;;;;;;;;;;;;30.62;40.41;99126.91;5097932;28;20297;-78
2022/08/13 07:43:16;;;;;;;;;;;;;;;29.26;41.66;99126.91;5098015;28;19979;-78
2022/08/13 07:45:41;;;;;;;;;;;;;;;29.51;41.42;99123.22;5097339;28;19911;-78
2022/08/13 07:48:07;;;;;;;;;;;;;;;30.82;40.36;99128.09;5114790;28;19912;-77
2022/08/13 07:50:33;;;;;;;;;;;;;;;31.26;37.80;99116.81;5097619;28;19969;-78
2022/08/13 07:52:59;;;;;;;;;;;;;;;32.18;36.66;99122.91;5080069;28;19964;-78
2022/08/13 07:55:25;;;;;;;;;;;;;;;32.18;36.35;99115.72;5080844;28;20385;-78
2022/08/13 07:57:51;;;;;;;;;;;;;;;30.56;38.47;99116.94;5097178;28;19999;-78
2022/08/13 08:00:25;;;;;;;;;;;;;;;31.15;38.54;99124.41;5114881;28;19959;-78
2022/08/13 08:02:55;;;;;;;;;;;;;;;31.59;38.51;99113.91;5107163;28;19920;-77
2022/08/13 08:05:22;;;;;;;;;;;;;;;31.38;37.53;99117.19;5082674;28;19926;-77
2022/08/13 08:07:50;;;;;;;;;;;;;;;32.29;35.66;99120.59;5081751;28;20380;-75
2022/08/13 08:10:15;;;;;;;;;;;;;;;31.34;37.76;99117.75;5082151;28;19916;-77
2022/08/13 08:12:41;;;;;;;;;;;;;;;31.88;37.48;99122.88;5099682;28;20332;-77
2022/08/13 08:15:07;;;;;;;;;;;;;;;33.78;35.15;99124.50;5081355;28;19973;-77
2022/08/13 08:17:32;;;;;;;;;;;;;;;33.89;33.90;99121.28;5080107;28;19916;-77
2022/08/13 08:19:58;;;;;;;;;;;;;;;31.98;36.07;99128.81;5101971;28;19927;-75
2022/08/13 08:22:23;;;;;;;;;;;;;;;33.54;33.91;99113.22;5084788;28;19930;-77
2022/08/13 08:24:50;;;;;;;;;;;;;;;32.07;34.92;99119.72;5084773;28;20457;-78
2022/08/13 08:27:19;;;;;;;;;;;;;;;31.76;36.27;99113.72;5084311;28;20518;-78
2022/08/13 08:29:45;;;;;;;;;;;;;;;31.22;35.54;99115.50;5086072;28;19915;-78
2022/08/13 08:32:11;;;;;;;;;;;;;;;31.94;34.88;99116.84;5084891;28;20508;-78
2022/08/13 08:34:37;;;;;;;;;;;;;;;33.85;33.12;99120.00;5085076;28;20453;-77
2022/08/13 08:37:03;;;;;;;;;;;;;;;32.78;34.67;99127.13;5068533;28;19966;-78
2022/08/13 08:44:59;;;;;;;;;;;;;;;34.29;33.07;99113.50;5104420;28;20379;-78
2022/08/13 08:47:29;;;;;;;;;;;;;;;32.85;35.97;99119.19;5069344;28;19962;-78
2022/08/13 08:49:56;;;;;;;;;;;;;;;31.55;37.24;99120.59;5085864;27;19926;-78
2022/08/13 08:52:21;;;;;;;;;;;;;;;32.73;36.20;99126.88;5102577;28;19924;-78
2022/08/13 08:54:47;;;;;;;;;;;;;;;31.87;37.49;99129.25;5085495;28;19923;-77
2022/08/13 08:57:12;;;;;;;;;;;;;;;32.22;36.66;99118.88;5083987;28;19924;-78
2022/08/13 08:59:41;;;;;;;;;;;;;;;31.90;37.63;99104.91;5085152;28;19912;-77
2022/08/13 09:02:21;;;;;;;;;;;;;;;33.41;36.22;99108.63;5074856;28;19912;-77
2022/08/13 09:04:54;;;;;;;;;;;;;;;33.85;34.08;99099.50;5084033;28;19924;-77
2022/08/13 09:07:21;;;;;;;;;;;;;;;33.91;33.29;99082.66;5086550;28;19916;-77
2022/08/13 09:09:50;;;;;;;;;;;;;;;33.29;35.76;99097.66;5084881;28;19916;-78
2022/08/13 09:12:15;;;;;;;;;;;;;;;32.49;36.46;99112.00;5084962;28;19985;-77
2022/08/13 09:14:40;;;;;;;;;;;;;;;32.84;36.30;99110.34;5102572;28;19920;-78
2022/08/13 09:17:06;;;;;;;;;;;;;;;32.92;35.90;99106.75;5082311;28;19951;-77
2022/08/13 09:19:31;;;;;;;;;;;;;;;33.88;34.26;99092.94;5080200;28;19927;-78
2022/08/13 09:21:58;;;;;;;;;;;;;;;35.40;32.79;99097.84;5085050;28;19965;-77
2022/08/13 09:24:24;;;;;;;;;;;;;;;34.86;32.29;99095.34;5101141;28;19923;-77
2022/08/13 09:26:51;;;;;;;;;;;;;;;34.74;33.72;99103.16;5083291;28;20045;-77
2022/08/13 09:29:18;;;;;;;;;;;;;;;35.85;31.65;99102.53;5084886;28;20372;-78
2022/08/13 09:31:44;;;;;;;;;;;;;;;35.16;31.62;99101.16;5083590;28;19927;-78
2022/08/13 09:34:10;;;;;;;;;;;;;;;34.80;32.83;99088.13;5083643;28;19916;-77
2022/08/13 09:36:36;;;;;;;;;;;;;;;34.91;32.31;99093.69;5084415;28;19959;-78
2022/08/13 09:39:02;;;;;;;;;;;;;;;35.68;31.03;99094.13;5084143;28;20276;-78
2022/08/13 09:41:28;;;;;;;;;;;;;;;35.59;31.15;99090.00;5084397;28;19923;-77
2022/08/13 09:43:57;;;;;;;;;;;;;;;34.99;32.36;99088.16;5083451;28;20469;-77
2022/08/13 09:46:23;;;;;;;;;;;;;;;35.15;31.64;99086.97;5100200;28;19919;-77
2022/08/13 09:48:50;;;;;;;;;;;;;;;32.78;34.54;99092.47;5084711;28;19919;-78
2022/08/13 09:51:15;;;;;;;;;;;;;;;33.86;33.05;99085.09;5102327;28;19916;-79
2022/08/13 09:53:41;;;;;;;;;;;;;;;35.07;30.85;99081.78;5083941;28;19916;-78
2022/08/13 09:56:06;;;;;;;;;;;;;;;33.57;32.30;99086.13;5066284;28;19934;-78
2022/08/13 09:58:32;;;;;;;;;;;;;;;33.48;32.61;99089.97;5084311;28;19920;-78
2022/08/13 10:00:58;;;;;;;;;;;;;;;34.81;32.68;99087.09;5067389;22;19925;-78
2022/08/13 10:03:23;;;;;;;;;;;;;;;36.86;31.26;99079.59;5047390;28;20004;-78
2022/08/13 10:05:50;;;;;;;;;;;;;;;34.59;32.76;99079.22;5048330;28;19928;-78
2022/08/13 10:08:16;;;;;;;;;;;;;;;34.33;33.05;99077.31;5027678;28;19924;-77
2022/08/13 10:10:42;;;;;;;;;;;;;;;35.97;30.56;99070.53;5027622;28;19913;-77
2022/08/13 10:13:07;;;;;;;;;;;;;;;35.68;30.54;99072.69;5043806;28;19933;-78
2022/08/13 10:15:33;;;;;;;;;;;;;;;37.52;29.48;99056.72;5014712;28;19936;-77
2022/08/13 10:17:58;;;;;;;;;;;;;;;37.28;29.69;99061.09;5041575;28;19972;-77
2022/08/13 10:20:29;;;;;;;;;;;;;;;36.42;28.50;99066.00;5042037;28;20290;-78
2022/08/13 10:22:54;;;;;;;;;;;;;;;36.29;29.17;99062.56;5025417;28;19924;-76
2022/08/13 10:25:19;;;;;;;;;;;;;;;34.77;30.00;99054.59;5021316;28;19993;-76
2022/08/13 10:27:46;;;;;;;;;;;;;;;36.87;28.99;99054.38;5035257;28;19921;-74
2022/08/13 10:30:11;;;;;;;;;;;;;;;35.86;29.77;99052.44;5018135;28;19917;-72
2022/08/13 10:32:36;;;;;;;;;;;;;;;36.46;29.16;99053.00;5034376;28;20191;-72
2022/08/13 10:35:03;;;;;;;;;;;;;;;36.80;28.88;99043.69;5034968;28;19923;-73
2022/08/13 10:37:31;;;;;;;;;;;;;;;37.87;29.22;99048.06;5035379;28;19960;-75
2022/08/13 10:39:57;;;;;;;;;;;;;;;38.06;28.44;99038.94;5017963;28;20586;-75
2022/08/13 10:42:22;;;;;;;;;;;;;;;35.14;30.19;99050.50;5039072;28;19912;-76
2022/08/13 10:44:51;;;;;;;;;;;;;;;36.39;28.86;99046.84;5025406;28;19924;-78
2022/08/13 10:47:17;;;;;;;;;;;;;;;37.04;28.84;99034.00;5037792;28;19917;-77
2022/08/13 10:49:42;;;;;;;;;;;;;;;37.20;28.20;99026.44;5024504;28;20272;-77
2022/08/13 10:52:07;;;;;;;;;;;;;;;37.13;27.44;99020.31;5026339;28;19921;-77
2022/08/13 10:54:33;;;;;;;;;;;;;;;37.66;26.77;99014.44;5023857;28;19913;-76
2022/08/13 10:56:58;;;;;;;;;;;;;;;37.19;26.53;99019.44;5023755;28;19921;-76
2022/08/13 10:59:23;;;;;;;;;;;;;;;36.77;26.10;99019.19;5024803;28;19913;-77
2022/08/13 11:01:49;;;;;;;;;;;;;;;36.98;28.10;99026.00;5040949;28;19917;-77
2022/08/13 11:04:14;;;;;;;;;;;;;;;37.33;27.17;99015.56;5024106;28;19939;-77
2022/08/13 11:06:40;;;;;;;;;;;;;;;38.46;26.38;99018.75;5023774;28;20386;-77
2022/08/13 11:09:06;;;;;;;;;;;;;;;37.31;27.39;99023.03;5041157;28;19917;-77
2022/08/13 11:11:34;;;;;;;;;;;;;;;36.75;28.36;99019.38;5025554;28;19921;-78
2022/08/13 11:13:59;;;;;;;;;;;;;;;39.45;26.82;99010.09;5022774;28;19941;-78
2022/08/13 11:19:11;;;;;;;;;;;;;;;36.37;28.57;99008.69;5038305;28;19924;-78
2022/08/13 11:21:37;;;;;;;;;;;;;;;36.64;28.96;99018.22;5027289;28;20035;-78
2022/08/13 11:24:02;;;;;;;;;;;;;;;36.37;29.60;99012.19;5027631;28;20055;-78
2022/08/13 11:26:27;;;;;;;;;;;;;;;37.81;28.64;98995.22;5023903;28;19928;-78
2022/08/13 11:28:53;;;;;;;;;;;;;;;37.50;27.58;99004.22;5018138;28;19929;-77
2022/08/13 11:31:18;;;;;;;;;;;;;;;39.58;26.12;99003.63;5020065;28;19921;-77
2022/08/13 11:33:43;;;;;;;;;;;;;;;37.82;26.80;99000.38;5039085;28;20558;-73
2022/08/13 11:36:09;;;;;;;;;;;;;;;38.46;26.48;98997.22;5036934;28;19924;-78
2022/08/13 11:38:34;;;;;;;;;;;;;;;36.64;26.96;98995.94;5019067;28;19917;-77
2022/08/13 11:40:59;;;;;;;;;;;;;;;38.20;27.59;98996.56;5018385;28;20020;-78
2022/08/13 11:43:26;;;;;;;;;;;;;;;35.97;27.41;98990.09;5020222;28;19921;-79
2022/08/13 11:45:51;;;;;;;;;;;;;;;36.44;27.12;98988.00;5018335;28;19925;-80
2022/08/13 11:48:17;;;;;;;;;;;;;;;36.21;26.70;98986.72;5018594;28;20228;-79
2022/08/13 11:50:42;;;;;;;;;;;;;;;37.58;26.62;98985.97;5034694;28;19928;-79
2022/08/13 11:53:07;;;;;;;;;;;;;;;35.93;27.98;98994.28;5019014;28;19921;-78
2022/08/13 11:55:33;;;;;;;;;;;;;;;36.31;27.70;98991.63;5000383;28;19917;-79
2022/08/13 11:57:59;;;;;;;;;;;;;;;37.01;27.01;98979.91;5014555;28;19959;-80
2022/08/13 12:00:24;;;;;;;;;;;;;;;37.41;26.62;98985.75;5017966;28;19917;-78
2022/08/13 12:02:50;;;;;;;;;;;;;;;37.21;25.83;98982.44;5018665;28;20007;-79
2022/08/13 12:05:15;;;;;;;;;;;;;;;38.52;27.46;98985.56;5013051;28;19921;-79
2022/08/13 12:07:40;;;;;;;;;;;;;;;37.01;26.71;98967.31;5019648;28;20256;-81
2022/08/13 12:10:06;;;;;;;;;;;;;;;35.88;28.03;98975.31;5036647;28;20380;-81
2022/08/13 12:12:31;;;;;;;;;;;;;;;37.80;26.44;98967.50;5017090;28;19931;-78
2022/08/13 12:14:56;;;;;;;;;;;;;;;36.35;28.77;98982.06;5017221;28;19921;-79
2022/08/13 12:17:21;;;;;;;;;;;;;;;38.72;26.88;98968.28;5006382;28;19927;-75
2022/08/13 12:19:47;;;;;;;;;;;;;;;40.22;25.53;98971.16;5015264;28;19928;-73
2022/08/13 12:22:12;;;;;;;;;;;;;;;40.56;23.91;98964.72;5033548;28;19921;-74
2022/08/13 12:24:38;;;;;;;;;;;;;;;39.64;25.07;98959.50;5016843;28;20384;-79
2022/08/13 12:27:04;;;;;;;;;;;;;;;40.90;25.70;98961.22;5030977;28;19921;-77
2022/08/13 12:29:29;;;;;;;;;;;;;;;39.36;27.36;98971.88;5015144;28;19924;-78
2022/08/13 12:31:54;;;;;;;;;;;;;;;39.06;25.49;98964.78;5015821;28;19925;-78
2022/08/13 12:34:19;;;;;;;;;;;;;;;40.22;25.25;98952.25;5013366;28;20080;-78
2022/08/13 12:36:44;;;;;;;;;;;;;;;39.96;24.62;98956.38;5017057;28;20832;-78
2022/08/13 12:39:10;;;;;;;;;;;;;;;37.91;26.31;98960.56;5014153;28;19921;-78
2022/08/13 12:41:35;;;;;;;;;;;;;;;37.00;27.29;98946.91;5016175;28;19920;-78
2022/08/13 12:44:00;;;;;;;;;;;;;;;37.22;27.11;98939.25;5018018;28;19920;-78
2022/08/13 12:46:25;;;;;;;;;;;;;;;38.59;26.42;98945.88;5017415;28;20000;-78
2022/08/13 12:48:51;;;;;;;;;;;;;;;39.61;25.05;98939.25;5016951;28;19928;-78
2022/08/13 12:51:16;;;;;;;;;;;;;;;38.41;26.50;98940.56;5016516;28;20405;-78
2022/08/13 12:53:41;;;;;;;;;;;;;;;39.44;25.58;98938.41;5015999;28;20378;-78
2022/08/13 12:56:06;;;;;;;;;;;;;;;41.62;23.38;98930.53;5014958;28;20374;-78
2022/08/13 12:58:32;;;;;;;;;;;;;;;40.68;23.40;98932.22;5035057;28;19991;-77
2022/08/13 13:00:57;;;;;;;;;;;;;;;40.70;23.92;98930.13;5039421;28;19917;-78
2022/08/13 13:03:23;;;;;;;;;;;;;;;41.30;22.94;98933.13;5022532;28;20382;-79
2022/08/13 13:05:50;;;;;;;;;;;;;;;40.14;24.21;98921.94;5024527;28;19921;-78
2022/08/13 13:08:16;;;;;;;;;;;;;;;40.31;24.20;98930.06;5026836;28;19975;-78
2022/08/13 13:10:42;;;;;;;;;;;;;;;40.00;24.34;98925.97;5024860;28;19936;-77
2022/08/13 13:13:07;;;;;;;;;;;;;;;40.15;23.39;98917.34;5020571;28;19933;-77
2022/08/13 13:15:32;;;;;;;;;;;;;;;39.67;22.85;98910.53;5020739;28;20293;-76
2022/08/13 13:17:57;;;;;;;;;;;;;;;40.56;24.14;98907.22;5021039;28;19921;-77
2022/08/13 13:20:23;;;;;;;;;;;;;;;42.74;23.63;98919.88;5027273;28;19917;-77
2022/08/13 13:22:48;;;;;;;;;;;;;;;41.29;23.67;98909.88;5046369;28;19931;-77
2022/08/13 13:25:13;;;;;;;;;;;;;;;41.28;23.73;98924.44;5031252;28;20283;-76
2022/08/13 13:27:40;;;;;;;;;;;;;;;39.85;25.53;98915.75;5025759;28;19986;-78
2022/08/13 13:30:11;;;;;;;;;;;;;;;39.39;25.00;98914.84;5027560;28;20378;-78
2022/08/13 13:32:36;;;;;;;;;;;;;;;40.61;24.21;98904.59;5027482;28;20834;-78
2022/08/13 13:35:02;;;;;;;;;;;;;;;40.21;23.87;98904.75;5045988;28;20031;-77
2022/08/13 13:37:27;;;;;;;;;;;;;;;39.98;26.39;98909.22;5042571;28;20011;-77
2022/08/13 13:39:52;;;;;;;;;;;;;;;41.47;24.90;98904.13;5043872;28;20118;-77
2022/08/13 13:42:18;;;;;;;;;;;;;;;42.72;22.46;98888.72;5030430;28;19917;-77
2022/08/13 13:44:43;;;;;;;;;;;;;;;41.98;23.97;98896.56;5044360;28;19913;-77
2022/08/13 13:47:08;;;;;;;;;;;;;;;40.25;25.42;98898.59;5044166;28;19913;-77
2022/08/13 13:49:33;;;;;;;;;;;;;;;39.52;25.22;98898.38;5044839;28;19914;-77
2022/08/13 13:51:59;;;;;;;;;;;;;;;38.94;25.84;98896.66;5028634;28;19995;-77
2022/08/13 13:54:24;;;;;;;;;;;;;;;40.70;24.77;98889.63;5045626;28;20322;-77
2022/08/13 13:56:49;;;;;;;;;;;;;;;39.90;24.78;98883.47;5028907;28;20301;-77
2022/08/13 13:59:15;;;;;;;;;;;;;;;40.71;23.78;98882.34;5038844;28;20298;-78
2022/08/13 14:01:40;;;;;;;;;;;;;;;40.91;24.47;98876.41;5022177;28;19931;-74
2022/08/13 14:04:05;;;;;;;;;;;;;;;41.08;24.76;98882.56;5010497;28;20409;-75
2022/08/13 14:06:31;;;;;;;;;;;;;;;42.03;23.29;98884.16;5027572;28;19917;-77
2022/08/13 14:08:56;;;;;;;;;;;;;;;40.41;24.40;98888.91;5018556;28;19934;-76
2022/08/13 14:11:21;;;;;;;;;;;;;;;42.62;22.92;98878.66;5019324;28;19999;-75
2022/08/13 14:13:47;;;;;;;;;;;;;;;43.12;22.21;98882.72;5023595;28;19917;-75
2022/08/13 14:16:12;;;;;;;;;;;;;;;43.23;23.99;98884.41;5023503;28;20298;-75
2022/08/13 14:18:38;;;;;;;;;;;;;;;43.79;22.59;98881.03;5008500;28;19956;-75
2022/08/13 14:21:04;;;;;;;;;;;;;;;42.90;23.44;98874.75;5038000;28;19913;-78
2022/08/13 14:23:29;;;;;;;;;;;;;;;42.49;23.95;98871.00;5020955;28;20385;-78
2022/08/13 14:25:55;;;;;;;;;;;;;;;40.74;24.33;98873.75;5019023;28;21052;-78
2022/08/13 14:28:21;;;;;;;;;;;;;;;40.02;25.76;98871.81;5021386;28;19972;-78
2022/08/13 14:30:47;;;;;;;;;;;;;;;43.65;23.60;98864.47;5021136;28;19917;-78
2022/08/13 14:33:13;;;;;;;;;;;;;;;42.57;24.50;98865.09;5061724;28;19917;-76
2022/08/13 14:35:38;;;;;;;;;;;;;;;41.25;26.00;98868.22;5029767;28;20425;-75
2022/08/13 14:38:04;;;;;;;;;;;;;;;41.56;24.93;98866.69;5046753;28;20593;-75
2022/08/13 14:40:29;;;;;;;;;;;;;;;40.38;25.32;98861.59;5029931;28;19979;-76
2022/08/13 14:42:56;;;;;;;;;;;;;;;39.76;24.75;98851.63;5029207;28;19956;-76
2022/08/13 14:45:41;;;;;;;;;;;;;;;39.80;26.05;98856.28;5046954;28;19971;-76
2022/08/13 14:48:08;;;;;;;;;;;;;;;38.13;26.46;98853.28;5043810;28;19920;-76
2022/08/13 14:50:34;;;;;;;;;;;;;;;40.06;25.74;98848.69;5046513;28;19914;-75
2022/08/13 14:53:00;;;;;;;;;;;;;;;41.15;24.00;98842.69;5030033;28;20286;-75
2022/08/13 14:55:26;;;;;;;;;;;;;;;41.93;24.03;98839.69;5046460;28;19917;-76
2022/08/13 14:57:52;;;;;;;;;;;;;;;41.56;25.02;98840.47;5046087;28;19913;-76
2022/08/13 15:00:17;;;;;;;;;;;;;;;43.30;22.67;98840.00;5048658;28;20019;-76
2022/08/13 15:02:43;;;;;;;;;;;;;;;40.51;24.43;98834.25;5041708;28;20007;-77
2022/08/13 15:05:08;;;;;;;;;;;;;;;40.73;24.43;98832.44;5057456;28;19924;-76
2022/08/13 15:07:34;;;;;;;;;;;;;;;41.45;23.74;98832.47;5007821;28;20374;-77
2022/08/13 15:10:00;;;;;;;;;;;;;;;41.63;23.56;98825.91;5014632;28;19971;-77
2022/08/13 15:12:29;;;;;;;;;;;;;;;41.57;23.68;98820.44;5023921;28;19989;-77
2022/08/13 15:14:55;;;;;;;;;;;;;;;41.76;24.24;98829.03;5040071;28;19917;-77
2022/08/13 15:17:20;;;;;;;;;;;;;;;39.99;25.62;98815.66;5056431;28;20382;-76
2022/08/13 15:19:45;;;;;;;;;;;;;;;41.43;23.39;98816.50;5021879;28;19913;-76
2022/08/13 15:22:11;;;;;;;;;;;;;;;41.01;23.95;98810.88;5039567;28;19921;-76
2022/08/13 15:24:37;;;;;;;;;;;;;;;39.82;24.68;98816.44;5055441;28;20000;-76
2022/08/13 15:27:03;;;;;;;;;;;;;;;39.94;24.01;98806.41;5040651;28;19962;-76
2022/08/13 15:29:29;;;;;;;;;;;;;;;41.97;23.04;98802.97;5021592;28;20294;-75
2022/08/13 15:31:54;;;;;;;;;;;;;;;42.20;23.33;98801.78;5012343;28;19924;-77
2022/08/13 15:34:22;;;;;;;;;;;;;;;42.58;23.72;98807.13;5039974;28;20281;-75
2022/08/13 15:36:47;;;;;;;;;;;;;;;42.97;23.24;98798.66;5039492;28;20018;-76
2022/08/13 15:39:12;;;;;;;;;;;;;;;41.47;24.64;98796.00;5023388;28;20476;-76
2022/08/13 15:41:39;;;;;;;;;;;;;;;42.27;22.24;98796.13;5043289;28;19920;-73
2022/08/13 15:44:04;;;;;;;;;;;;;;;40.51;24.04;98793.75;5046815;28;19923;-75
2022/08/13 15:46:30;;;;;;;;;;;;;;;43.81;21.17;98785.81;5062514;28;20329;-75
2022/08/13 15:48:56;;;;;;;;;;;;;;;42.13;24.69;98792.22;5019228;28;19923;-75
2022/08/13 15:51:22;;;;;;;;;;;;;;;41.17;26.22;98800.03;5023558;28;20405;-78
2022/08/13 15:53:47;;;;;;;;;;;;;;;42.54;22.59;98789.78;5038215;28;19924;-77
2022/08/13 15:56:12;;;;;;;;;;;;;;;43.24;22.05;98790.34;5022317;28;19924;-77
2022/08/13 15:58:37;;;;;;;;;;;;;;;43.83;21.29;98786.34;5022641;28;19921;-80
2022/08/13 16:01:03;;;;;;;;;;;;;;;45.19;21.43;98774.53;5147314;22;20301;-80
2022/08/13 16:03:29;;;;;;;;;;;;;;;41.00;23.80;98772.25;5072018;28;19985;-78
2022/08/13 16:05:55;;;;;;;;;;;;;;;40.68;24.27;98775.63;5070249;28;19946;-79
2022/08/13 16:08:20;;;;;;;;;;;;;;;41.24;23.64;98763.88;5057018;28;19959;-80
2022/08/13 16:10:46;;;;;;;;;;;;;;;41.43;24.00;98765.16;5069276;28;19923;-79
2022/08/13 16:13:12;;;;;;;;;;;;;;;42.53;24.08;98769.22;5071303;28;19916;-79
2022/08/13 16:15:38;;;;;;;;;;;;;;;41.82;24.92;98767.66;5070012;28;19958;-79
2022/08/13 16:18:06;;;;;;;;;;;;;;;42.31;24.67;98770.19;5050586;28;19921;-78
2022/08/13 16:20:34;;;;;;;;;;;;;;;42.33;23.23;98768.00;5069963;28;19973;-78
2022/08/13 16:23:00;;;;;;;;;;;;;;;43.69;22.29;98766.28;5067823;28;20446;-80
2022/08/13 16:25:26;;;;;;;;;;;;;;;41.36;23.97;98753.75;5072422;28;19955;-79
2022/08/13 16:27:52;;;;;;;;;;;;;;;42.97;23.73;98755.31;5071870;28;20294;-79
2022/08/13 16:30:18;;;;;;;;;;;;;;;40.05;25.51;98756.13;5074647;28;19920;-79
2022/08/13 16:32:44;;;;;;;;;;;;;;;42.25;23.17;98749.56;5072155;28;19924;-79
2022/08/13 16:35:11;;;;;;;;;;;;;;;40.97;24.64;98751.97;5051834;28;19932;-79
2022/08/13 16:37:36;;;;;;;;;;;;;;;41.67;23.74;98754.00;5071976;28;20633;-79
2022/08/13 16:40:03;;;;;;;;;;;;;;;41.82;23.59;98735.19;5056990;28;19920;-79
2022/08/13 16:42:28;;;;;;;;;;;;;;;41.98;23.30;98733.44;5059187;28;19920;-79
2022/08/13 16:44:54;;;;;;;;;;;;;;;42.46;23.45;98730.75;5058912;28;20432;-79
2022/08/13 16:47:22;;;;;;;;;;;;;;;43.31;22.53;98733.97;5076596;28;20373;-79
2022/08/13 16:49:48;;;;;;;;;;;;;;;42.98;23.20;98729.84;5076606;28;20411;-79
2022/08/13 16:52:13;;;;;;;;;;;;;;;44.68;21.69;98723.16;5076732;28;19974;-79
2022/08/13 16:54:39;;;;;;;;;;;;;;;43.41;22.47;98730.47;5059870;28;19919;-79
2022/08/13 16:57:05;;;;;;;;;;;;;;;46.51;21.04;98730.09;5077169;28;19987;-79
2022/08/13 16:59:31;;;;;;;;;;;;;;;43.98;21.48;98723.94;5059782;28;19920;-79
2022/08/13 17:01:57;;;;;;;;;;;;;;;41.97;22.64;98716.41;5082235;28;19912;-79
2022/08/13 17:09:50;;;;;;;;;;;;;;;43.02;23.46;98722.81;5090547;28;20299;-79
2022/08/13 17:12:16;;;;;;;;;;;;;;;42.45;24.69;98721.81;5090234;28;19920;-79
2022/08/13 17:14:42;;;;;;;;;;;;;;;43.20;23.31;98721.47;5096864;28;19916;-79
2022/08/13 17:17:08;;;;;;;;;;;;;;;43.27;24.02;98723.94;5077871;28;20316;-79
2022/08/13 17:19:34;;;;;;;;;;;;;;;42.59;24.82;98716.72;5094000;28;19912;-79
2022/08/13 17:21:59;;;;;;;;;;;;;;;45.86;21.79;98725.06;5071415;28;19912;-79
2022/08/13 17:24:27;;;;;;;;;;;;;;;43.61;21.90;98713.38;5060499;28;19965;-79
2022/08/13 17:26:53;;;;;;;;;;;;;;;42.81;22.30;98711.09;5095575;28;19912;-80
2022/08/13 17:29:21;;;;;;;;;;;;;;;44.33;22.09;98708.63;5061923;28;19924;-80
2022/08/13 17:31:47;;;;;;;;;;;;;;;41.69;23.31;98711.31;5078854;28;19920;-79
2022/08/13 17:34:13;;;;;;;;;;;;;;;44.56;22.16;98698.25;5078728;28;19957;-79
2022/08/13 17:36:39;;;;;;;;;;;;;;;45.95;20.19;98698.84;5060091;28;19927;-79
2022/08/13 17:39:05;;;;;;;;;;;;;;;44.26;22.09;98699.97;5077665;28;19912;-79
2022/08/13 17:41:30;;;;;;;;;;;;;;;46.43;20.67;98706.22;5060739;28;19912;-79
2022/08/13 17:43:55;;;;;;;;;;;;;;;46.68;20.64;98702.34;5077866;28;20378;-79
2022/08/13 17:46:21;;;;;;;;;;;;;;;45.84;20.41;98705.47;5076553;28;19916;-77
2022/08/13 17:48:47;;;;;;;;;;;;;;;45.17;21.05;98700.59;5073369;28;19912;-80
2022/08/13 17:51:15;;;;;;;;;;;;;;;44.20;21.53;98711.94;5088560;28;19920;-79
2022/08/13 17:53:40;;;;;;;;;;;;;;;44.44;22.29;98702.09;5086744;28;19967;-79
2022/08/13 17:56:06;;;;;;;;;;;;;;;39.46;26.89;98705.34;5055210;28;19955;-78
2022/08/13 17:58:32;;;;;;;;;;;;;;;40.24;25.07;98705.44;5073111;28;19917;-79
2022/08/13 18:01:00;;;;;;;;;;;;;;;39.86;25.33;98704.34;5073261;28;19924;-78
2022/08/13 18:03:26;;;;;;;;;;;;;;;40.91;24.81;98708.97;5073854;28;19912;-79
2022/08/13 18:05:52;;;;;;;;;;;;;;;41.56;25.57;98705.28;5092765;28;19920;-79
2022/08/13 18:08:17;;;;;;;;;;;;;;;41.08;24.98;98717.78;5091357;28;20011;-78
2022/08/13 18:10:42;;;;;;;;;;;;;;;39.66;26.70;98714.78;5073464;28;19912;-79
2022/08/13 18:13:08;;;;;;;;;;;;;;;42.62;24.15;98718.88;5076888;28;20002;-79
2022/08/13 18:15:33;;;;;;;;;;;;;;;42.37;23.75;98709.56;5076911;28;20293;-79
2022/08/13 18:17:58;;;;;;;;;;;;;;;40.93;25.81;98709.53;5073663;28;19916;-79
2022/08/13 18:20:28;;;;;;;;;;;;;;;41.44;26.11;98722.72;5075305;28;19915;-79
2022/08/13 18:22:53;;;;;;;;;;;;;;;39.96;25.94;98717.16;5091927;28;19924;-79
2022/08/13 18:25:19;;;;;;;;;;;;;;;40.88;25.68;98712.16;5058837;28;20003;-79
2022/08/13 18:27:44;;;;;;;;;;;;;;;40.22;26.57;98717.53;5049815;28;20292;-79
2022/08/13 18:30:12;;;;;;;;;;;;;;;39.05;27.43;98719.91;5048007;28;19911;-79
2022/08/13 18:32:39;;;;;;;;;;;;;;;38.17;28.01;98717.31;5068301;28;19919;-79
2022/08/13 18:35:05;;;;;;;;;;;;;;;38.98;28.45;98722.78;5075552;28;19962;-79
2022/08/13 18:37:30;;;;;;;;;;;;;;;38.48;27.82;98716.13;5073127;28;20499;-79
2022/08/13 18:39:55;;;;;;;;;;;;;;;39.65;27.10;98713.19;5057111;28;19955;-79
2022/08/13 18:42:23;;;;;;;;;;;;;;;40.03;26.79;98719.69;5073809;28;19916;-79
2022/08/13 18:44:48;;;;;;;;;;;;;;;40.63;25.88;98713.50;5090833;28;19916;-79
2022/08/13 18:47:14;;;;;;;;;;;;;;;40.39;26.55;98720.19;5071598;28;19920;-79
2022/08/13 18:49:39;;;;;;;;;;;;;;;39.76;26.83;98725.75;5091568;28;20393;-78
2022/08/13 18:52:05;;;;;;;;;;;;;;;40.27;26.16;98717.63;5089968;28;19920;-79
2022/08/13 18:54:30;;;;;;;;;;;;;;;40.51;25.95;98721.72;5072431;28;19953;-79
2022/08/13 18:56:55;;;;;;;;;;;;;;;39.83;27.33;98721.03;5073662;28;19912;-79